Time;durP1;ratioP1;P1;durP2;ratioP2;P2;SDS_P1;SDS_P2;PMS_P1;PMS_P2;Temp;Humidity;BMP_temperature;BMP_pressure;BME280_temperature;BME280_humidity;BME280_pressure;Samples;Min_cycle;Max_cycle;Signal;HPM_P1;HPM_P2
2022/08/16 00:00:57;;;;;;;;;43.25;34.75;;;;;23.00;100.00;100412.47;5016439;28;45448;-74
2022/08/16 00:03:23;;;;;;;;;41.50;34.50;;;;;23.02;100.00;100422.31;5016333;28;45501;-72
2022/08/16 00:05:49;;;;;;;;;35.50;32.75;;;;;22.94;100.00;100419.97;5015832;28;46494;-72
2022/08/16 00:08:15;;;;;;;;;41.25;35.50;;;;;22.96;100.00;100427.06;5015987;28;47756;-73
2022/08/16 00:10:41;;;;;;;;;38.00;35.00;;;;;22.89;100.00;100416.63;5016351;28;45498;-72
2022/08/16 00:13:08;;;;;;;;;38.25;35.25;;;;;22.87;100.00;100427.44;4997821;28;59422;-74
2022/08/16 00:15:37;;;;;;;;;40.00;34.50;;;;;22.89;100.00;100436.34;4998412;28;46225;-71
2022/08/16 00:18:04;;;;;;;;;37.75;33.00;;;;;22.83;100.00;100433.03;4998304;28;45249;-72
2022/08/16 00:20:29;;;;;;;;;40.50;35.25;;;;;22.85;100.00;100439.22;5016360;28;45215;-71
2022/08/16 00:22:55;;;;;;;;;41.25;34.75;;;;;22.81;100.00;100435.81;5015841;28;45666;-72
2022/08/16 00:25:22;;;;;;;;;19.25;19.25;;;;;22.79;100.00;100447.56;5014451;28;72559;-73
2022/08/16 00:27:48;;;;;;;;;41.75;35.00;;;;;22.74;100.00;100435.22;5015711;28;45374;-72
2022/08/16 00:30:14;;;;;;;;;40.50;35.00;;;;;22.74;100.00;100443.28;5016043;28;45544;-72
2022/08/16 00:32:42;;;;;;;;;42.75;35.25;;;;;22.71;100.00;100439.84;5015634;28;45426;-71
2022/08/16 00:35:09;;;;;;;;;43.50;36.25;;;;;22.74;100.00;100445.97;5015887;28;47287;-74
2022/08/16 00:37:35;;;;;;;;;42.00;35.50;;;;;22.73;100.00;100446.03;5015841;28;45335;-72
2022/08/16 00:40:00;;;;;;;;;41.00;36.00;;;;;22.71;100.00;100435.34;5015247;28;61203;-73
2022/08/16 00:42:29;;;;;;;;;42.00;36.25;;;;;22.77;100.00;100446.78;5015378;28;57032;-72
2022/08/16 00:45:00;;;;;;;;;42.75;37.25;;;;;22.73;100.00;100436.13;4997940;28;45404;-72
2022/08/16 00:47:25;;;;;;;;;40.50;34.50;;;;;22.81;100.00;100448.41;5015531;28;45369;-72
2022/08/16 00:49:51;;;;;;;;;43.00;35.50;;;;;22.82;100.00;100445.63;5015641;28;45374;-72
2022/08/16 00:52:17;;;;;;;;;42.25;34.50;;;;;22.84;100.00;100445.53;5015986;28;45209;-74
2022/08/16 00:54:43;;;;;;;;;48.00;38.75;;;;;22.86;100.00;100443.69;5015472;28;45968;-72
2022/08/16 00:57:08;;;;;;;;;49.50;37.25;;;;;22.87;100.00;100437.34;5014575;28;66824;-72
2022/08/16 00:59:37;;;;;;;;;42.00;35.25;;;;;22.86;100.00;100430.22;5016196;28;45546;-72
2022/08/16 01:02:05;;;;;;;;;43.50;34.50;;;;;22.89;100.00;100430.97;5001345;28;45541;-70
2022/08/16 01:04:30;;;;;;;;;42.00;36.00;;;;;22.90;100.00;100427.31;5018595;28;46447;-72
2022/08/16 01:06:57;;;;;;;;;42.25;34.50;;;;;22.91;100.00;100426.41;5018525;28;48530;-74
2022/08/16 01:09:22;;;;;;;;;38.75;34.00;;;;;22.88;100.00;100418.44;5019287;28;45713;-74
2022/08/16 01:11:48;;;;;;;;;43.75;36.75;;;;;22.90;100.00;100412.97;5019007;28;45606;-75
2022/08/16 01:14:20;;;;;;;;;43.75;37.25;;;;;22.90;100.00;100416.53;5018350;28;67787;-72
2022/08/16 01:16:46;;;;;;;;;39.50;35.00;;;;;22.94;100.00;100419.97;5012842;28;45628;-74
2022/08/16 01:19:12;;;;;;;;;39.25;36.00;;;;;22.96;100.00;100410.03;5019660;28;45445;-71
2022/08/16 01:21:53;;;;;;;;;41.75;35.00;;;;;22.96;100.00;100410.03;5018946;28;46544;-74
2022/08/16 01:24:45;;;;;;;;;44.75;37.25;;;;;22.96;100.00;100415.41;5000343;28;45543;-72
2022/08/16 01:27:15;;;;;;;;;42.75;35.25;;;;;22.96;100.00;100418.09;4994002;28;45379;-74
2022/08/16 01:29:51;;;;;;;;;42.00;36.50;;;;;22.91;100.00;100410.25;5000945;28;45562;-73
2022/08/16 01:32:17;;;;;;;;;40.00;35.50;;;;;22.95;100.00;100414.50;4984396;28;45306;-72
2022/08/16 01:34:43;;;;;;;;;39.50;35.00;;;;;22.90;100.00;100407.59;5017949;28;46293;-73
2022/08/16 01:37:10;;;;;;;;;39.00;34.00;;;;;22.95;100.00;100424.41;5000495;28;47602;-72
2022/08/16 01:39:36;;;;;;;;;38.75;35.75;;;;;22.94;100.00;100428.06;5018761;28;45389;-72
2022/08/16 01:42:03;;;;;;;;;36.25;32.50;;;;;22.93;100.00;100424.50;5018357;28;45229;-71
2022/08/16 01:44:28;;;;;;;;;37.25;33.75;;;;;22.92;100.00;100422.75;5018548;28;47447;-72
2022/08/16 01:46:56;;;;;;;;;40.75;34.75;;;;;22.93;100.00;100429.88;5017776;28;45501;-72
2022/08/16 01:49:26;;;;;;;;;41.00;34.00;;;;;22.87;100.00;100415.81;5018203;28;45492;-72
2022/08/16 01:51:59;;;;;;;;;38.25;34.50;;;;;22.93;100.00;100426.31;5000555;28;45416;-72
2022/08/16 01:54:25;;;;;;;;;37.25;33.50;;;;;22.92;100.00;100425.44;5000435;28;45859;-72
2022/08/16 01:56:50;;;;;;;;;41.00;33.25;;;;;22.92;100.00;100425.44;5017959;28;45380;-73
2022/08/16 01:59:16;;;;;;;;;39.50;34.25;;;;;22.90;100.00;100421.06;5017745;28;57485;-74
2022/08/16 02:01:43;;;;;;;;;38.25;33.50;;;;;22.88;100.00;100417.56;5018445;28;45489;-73
2022/08/16 02:04:08;;;;;;;;;37.25;32.00;;;;;22.92;100.00;100430.81;5017943;28;46713;-73
2022/08/16 02:06:34;;;;;;;;;37.25;34.75;;;;;22.86;100.00;100417.63;5017829;28;45422;-72
2022/08/16 02:09:00;;;;;;;;;35.25;33.25;;;;;22.86;100.00;100404.16;5018014;28;45355;-74
2022/08/16 02:11:26;;;;;;;;;37.50;34.25;;;;;22.90;100.00;100405.78;5017762;28;45224;-72
2022/08/16 02:13:51;;;;;;;;;25.00;23.25;;;;;22.90;100.00;100415.66;5017709;28;46871;-72
2022/08/16 02:16:17;;;;;;;;;43.75;33.75;;;;;22.90;100.00;100421.94;5017867;28;45398;-73
2022/08/16 02:18:42;;;;;;;;;36.75;32.00;;;;;22.87;100.00;100418.50;5017577;28;45304;-72
2022/08/16 02:21:08;;;;;;;;;34.75;31.75;;;;;22.87;100.00;100432.81;5017091;28;58229;-71
2022/08/16 02:23:36;;;;;;;;;34.25;32.50;;;;;22.87;100.00;100416.66;5017571;28;46272;-72
2022/08/16 02:26:02;;;;;;;;;34.25;31.25;;;;;22.86;100.00;100417.63;5017219;28;45709;-73
2022/08/16 02:28:28;;;;;;;;;38.00;33.25;;;;;22.87;100.00;100408.59;5017821;28;45487;-73
2022/08/16 02:30:55;;;;;;;;;33.75;32.75;;;;;22.83;100.00;100395.34;5017623;28;45263;-73
2022/08/16 02:33:22;;;;;;;;;34.50;31.25;;;;;22.85;100.00;100397.03;5017170;28;46618;-71
2022/08/16 02:35:47;;;;;;;;;31.00;29.25;;;;;22.88;100.00;100402.28;5017320;28;45200;-75
2022/08/16 02:38:12;;;;;;;;;32.25;31.25;;;;;22.88;100.00;100406.81;5017023;28;60120;-72
2022/08/16 02:40:38;;;;;;;;;37.75;33.75;;;;;22.86;100.00;100390.69;5017394;28;45353;-73
2022/08/16 02:43:04;;;;;;;;;36.75;33.00;;;;;22.82;100.00;100375.63;5017245;28;46434;-72
2022/08/16 02:45:31;;;;;;;;;30.50;30.00;;;;;22.88;100.00;100377.19;5016763;28;45556;-72
2022/08/16 02:47:57;;;;;;;;;33.75;31.00;;;;;22.82;100.00;100367.56;5017428;28;45401;-72
2022/08/16 02:50:23;;;;;;;;;35.75;31.75;;;;;22.83;100.00;100365.72;5017290;28;45965;-73
2022/08/16 02:52:48;;;;;;;;;37.75;33.25;;;;;22.85;100.00;100363.81;5017402;28;46258;-72
2022/08/16 02:55:13;;;;;;;;;33.50;31.25;;;;;22.84;100.00;100384.50;5016435;28;63482;-72
2022/08/16 02:57:39;;;;;;;;;33.75;31.75;;;;;22.87;100.00;100373.59;5017209;28;50448;-71
2022/08/16 03:00:08;;;;;;;;;33.50;32.00;;;;;22.87;100.00;100362.81;5017099;28;45578;-74
2022/08/16 03:02:34;;;;;;;;;35.75;31.25;;;;;22.83;100.00;100344.19;5017234;28;45576;-72
2022/08/16 03:05:00;;;;;;;;;37.25;32.25;;;;;22.87;100.00;100348.50;5016688;28;45671;-74
2022/08/16 03:07:25;;;;;;;;;31.75;31.25;;;;;22.83;100.00;100334.28;5017447;28;45473;-72
2022/08/16 03:09:50;;;;;;;;;31.75;31.25;;;;;22.83;100.00;100334.28;5016148;28;62136;-73
2022/08/16 03:12:18;;;;;;;;;34.00;31.50;;;;;22.84;100.00;100338.72;5016117;28;71768;-75
2022/08/16 03:14:43;;;;;;;;;35.00;32.75;;;;;22.83;100.00;100345.06;5016514;28;45509;-74
2022/08/16 03:17:08;;;;;;;;;41.25;33.75;;;;;22.85;100.00;100359.34;5016973;28;45564;-72
2022/08/16 03:19:34;;;;;;;;;33.00;31.25;;;;;22.89;100.00;100358.25;5016414;28;54201;-72
2022/08/16 03:21:59;;;;;;;;;30.50;29.00;;;;;22.91;100.00;100369.84;5016069;28;46445;-75
2022/08/16 03:24:25;;;;;;;;;35.50;32.75;;;;;22.92;100.00;100378.81;5015737;28;62280;-72
2022/08/16 03:26:50;;;;;;;;;33.75;32.25;;;;;22.93;100.00;100389.50;5016869;28;45352;-72
2022/08/16 03:29:16;;;;;;;;;34.50;30.75;;;;;22.90;100.00;100367.22;5015490;28;63439;-72
2022/08/16 03:31:41;;;;;;;;;33.00;30.50;;;;;22.92;100.00;100376.97;5016549;28;45720;-72
2022/08/16 03:34:07;;;;;;;;;35.50;33.00;;;;;22.90;100.00;100381.53;4997854;28;59823;-74
2022/08/16 03:36:32;;;;;;;;;33.00;30.50;;;;;22.87;100.00;100383.50;5016226;28;57336;-72
2022/08/16 03:38:57;;;;;;;;;33.00;31.50;;;;;22.84;100.00;100383.63;5016615;28;45590;-72
2022/08/16 03:41:25;;;;;;;;;34.50;32.75;;;;;22.80;100.00;100373.94;5016193;28;45611;-74
2022/08/16 03:43:53;;;;;;;;;32.50;31.25;;;;;22.76;100.00;100370.53;5016693;28;45371;-72
2022/08/16 03:46:20;;;;;;;;;30.75;28.00;;;;;22.77;100.00;100374.97;5016913;28;45355;-72
2022/08/16 03:48:46;;;;;;;;;31.75;30.50;;;;;22.77;100.00;100391.13;5016280;28;45414;-72
2022/08/16 03:51:11;;;;;;;;;33.00;31.25;;;;;22.75;100.00;100384.94;5016333;28;45278;-72
2022/08/16 03:53:37;;;;;;;;;37.00;33.00;;;;;22.68;100.00;100376.25;5016309;28;45295;-72
2022/08/16 03:56:03;;;;;;;;;33.50;32.50;;;;;;;;5016788;28;45259;-71
2022/08/16 03:58:28;;;;;;;;;32.50;29.75;;;;;22.67;100.00;100373.66;5016328;28;45551;-72
2022/08/16 04:00:54;;;;;;;;;33.75;32.50;;;;;22.62;100.00;100364.91;5015404;28;64404;-72
2022/08/16 04:03:20;;;;;;;;;37.25;33.00;;;;;22.64;100.00;100381.88;5015439;28;45425;-72
2022/08/16 04:05:47;;;;;;;;;34.00;31.25;;;;;22.61;100.00;100379.31;5016118;28;45329;-72
2022/08/16 04:08:13;;;;;;;;;33.75;32.00;;;;;22.63;100.00;100390.88;5016537;28;45773;-72
2022/08/16 04:10:39;;;;;;;;;34.00;31.50;;;;;22.63;100.00;100397.13;5016032;28;45915;-73
2022/08/16 04:13:05;;;;;;;;;34.75;30.75;;;;;22.62;100.00;100395.38;5016214;28;45379;-72
2022/08/16 04:15:30;;;;;;;;;33.50;32.00;;;;;22.59;100.00;100397.38;5016074;28;45420;-72
2022/08/16 04:17:56;;;;;;;;;37.75;34.25;;;;;22.55;100.00;100383.16;5015624;28;60419;-72
2022/08/16 04:20:23;;;;;;;;;35.25;33.50;;;;;22.58;100.00;100395.59;5015952;28;45333;-75
2022/08/16 04:22:48;;;;;;;;;35.25;31.75;;;;;22.52;100.00;100383.28;5015518;28;45480;-72
2022/08/16 04:25:13;;;;;;;;;37.25;34.50;;;;;22.54;100.00;100396.69;5015990;28;45386;-72
2022/08/16 04:27:39;;;;;;;;;38.50;33.50;;;;;22.47;100.00;100378.13;5014961;28;59087;-72
2022/08/16 04:30:11;;;;;;;;;38.00;35.00;;;;;22.47;100.00;100386.19;5015842;28;45418;-75
2022/08/16 04:32:37;;;;;;;;;35.75;33.00;;;;;22.53;100.00;100394.94;5015507;28;45429;-74
2022/08/16 04:35:07;;;;;;;;;34.25;32.75;;;;;22.48;100.00;100401.41;5018733;28;45403;-73
2022/08/16 04:37:33;;;;;;;;;36.00;33.50;;;;;22.47;100.00;100399.63;5019340;28;45575;-74
2022/08/16 04:39:58;;;;;;;;;37.50;32.75;;;;;22.50;100.00;100401.34;5019190;28;45640;-72
2022/08/16 04:42:23;;;;;;;;;31.25;29.25;;;;;22.44;100.00;100397.09;5018255;28;70955;-73
2022/08/16 04:44:49;;;;;;;;;35.75;31.25;;;;;22.47;100.00;100399.63;5018524;28;60862;-73
2022/08/16 04:47:14;;;;;;;;;31.50;29.25;;;;;22.42;100.00;100387.34;5018801;28;48375;-72
2022/08/16 04:49:39;;;;;;;;;33.75;32.25;;;;;22.45;100.00;100396.16;5018252;28;63544;-75
2022/08/16 04:52:05;;;;;;;;;33.75;31.25;;;;;22.42;100.00;100392.72;5019059;28;45406;-72
2022/08/16 04:54:30;;;;;;;;;33.50;31.00;;;;;22.40;100.00;100397.31;5019211;28;45379;-72
2022/08/16 04:56:56;;;;;;;;;41.00;33.25;;;;;22.44;100.00;100398.94;5018998;28;50360;-75
2022/08/16 04:59:22;;;;;;;;;38.25;32.25;;;;;22.39;100.00;100399.13;5018332;28;70620;-71
2022/08/16 05:01:47;;;;;;;;;33.75;31.25;;;;;22.39;100.00;100403.63;5018515;28;45453;-70
2022/08/16 05:04:12;;;;;;;;;36.50;34.00;;;;;22.38;100.00;100396.50;5019322;28;45338;-72
2022/08/16 05:06:38;;;;;;;;;33.00;30.50;;;;;22.41;100.00;100418.75;5017889;28;63008;-74
2022/08/16 05:09:03;;;;;;;;;32.50;30.00;;;;;22.42;100.00;100403.47;5018086;28;47481;-73
2022/08/16 05:11:29;;;;;;;;;30.00;30.00;;;;;22.36;100.00;100404.63;5021161;28;45345;-74
2022/08/16 05:13:55;;;;;;;;;38.00;32.50;;;;;22.38;100.00;100415.34;5010867;28;45322;-74
2022/08/16 05:16:23;;;;;;;;;38.25;33.25;;;;;22.36;100.00;100406.44;5015215;28;45603;-73
2022/08/16 05:18:50;;;;;;;;;37.25;34.25;;;;;22.38;100.00;100420.72;5009356;28;46550;-71
2022/08/16 05:21:16;;;;;;;;;39.00;34.50;;;;;22.44;100.00;100439.28;5016792;28;45489;-71
2022/08/16 05:23:41;;;;;;;;;33.25;30.75;;;;;22.43;100.00;100426.78;5017218;28;45489;-70
2022/08/16 05:26:07;;;;;;;;;37.00;33.75;;;;;22.47;100.00;100428.38;5018602;28;45398;-71
2022/08/16 05:28:32;;;;;;;;;35.00;32.75;;;;;22.49;100.00;100435.44;5017524;28;69945;-71
2022/08/16 05:30:57;;;;;;;;;35.25;31.50;;;;;22.57;100.00;100442.28;5007204;28;66036;-72
2022/08/16 05:33:24;;;;;;;;;29.50;29.50;;;;;22.58;100.00;100435.94;5016741;28;65387;-71
2022/08/16 05:35:50;;;;;;;;;34.00;27.50;;;;;22.63;100.00;100440.19;5017520;28;45413;-73
2022/08/16 05:38:15;;;;;;;;;29.00;28.00;;;;;22.64;100.00;100441.09;5017911;28;46523;-72
2022/08/16 05:40:41;;;;;;;;;30.25;28.50;;;;;22.69;100.00;100439.94;5016846;28;61971;-72
2022/08/16 05:43:06;;;;;;;;;26.50;25.00;;;;;22.67;100.00;100432.84;5017944;28;59227;-73
2022/08/16 05:45:32;;;;;;;;;25.75;24.25;;;;;22.70;100.00;100438.13;5017429;28;45487;-72
2022/08/16 05:47:57;;;;;;;;;28.50;28.50;;;;;22.76;100.00;100440.53;5017389;28;45620;-71
2022/08/16 05:50:23;;;;;;;;;27.75;27.75;;;;;22.79;100.00;100444.88;5013379;28;60417;-72
2022/08/16 05:52:49;;;;;;;;;25.33;24.33;;;;;22.76;100.00;100435.13;5015782;28;46312;-72
2022/08/16 05:55:14;;;;;;;;;24.67;23.67;;;;;22.82;100.00;100451.00;5017294;28;45458;-72
2022/08/16 05:57:40;;;;;;;;;25.33;24.33;;;;;22.84;100.00;100449.09;5017500;28;45432;-72
2022/08/16 06:00:09;;;;;;;;;28.75;22.75;;;;;22.88;100.00;100450.75;5015985;28;65833;-73
2022/08/16 06:02:35;;;;;;;;;30.00;27.75;;;;;22.92;100.00;100456.88;5017128;28;45512;-72
2022/08/16 06:05:00;;;;;;;;;22.25;22.25;;;;;22.95;100.00;100454.03;5015996;28;45517;-72
2022/08/16 06:07:26;;;;;;;;;29.67;27.33;;;;;22.99;100.00;100461.03;5013185;28;46594;-72
2022/08/16 06:09:51;;;;;;;;;25.75;23.75;;;;;23.04;100.00;100464.38;5016335;28;45445;-73
2022/08/16 06:12:17;;;;;;;;;23.50;23.50;;;;;23.03;100.00;100456.38;5016319;28;45951;-74
2022/08/16 06:14:42;;;;;;;;;26.50;25.25;;;;;23.07;100.00;100458.00;5014701;28;45549;-72
2022/08/16 06:17:08;;;;;;;;;22.67;21.67;;;;;23.10;100.00;100461.41;5016838;28;45728;-73
2022/08/16 06:19:33;;;;;;;;;23.67;23.67;;;;;23.14;100.00;100464.84;5016212;28;45546;-73
2022/08/16 06:21:59;;;;;;;;;23.33;22.67;;;;;23.20;100.00;100467.22;5016632;28;45540;-72
2022/08/16 06:24:24;;;;;;;;;22.00;22.00;;;;;23.24;100.00;100468.84;5015996;28;46535;-72
2022/08/16 06:26:49;;;;;;;;;18.33;18.00;;;;;23.26;100.00;100464.25;5015848;28;61813;-72
2022/08/16 06:29:15;;;;;;;;;22.33;22.33;;;;;23.34;100.00;100472.84;5015931;28;45524;-71
2022/08/16 06:31:40;;;;;;;;;26.33;24.33;;;;;23.39;100.00;100468.13;5015967;28;59193;-72
2022/08/16 06:34:06;;;;;;;;;25.00;21.67;;;;;23.49;100.00;100471.25;5015470;28;46761;-72
2022/08/16 06:36:50;;;;;;;;;22.67;20.67;;;;;23.61;100.00;100461.69;5014194;28;46595;-73
2022/08/16 06:39:24;;;;;;;;;17.67;17.67;;;;;23.69;100.00;100464.91;5014476;28;45393;-71
2022/08/16 06:41:50;;;;;;;;;20.67;19.67;;;;;23.71;100.00;100460.31;5015333;28;45382;-72
2022/08/16 06:44:15;;;;;;;;;20.00;20.00;;;;;23.80;100.00;100473.34;5015214;28;64587;-72
2022/08/16 06:46:41;;;;;;;;;20.00;18.67;;;;;23.87;100.00;100479.31;5016728;28;45498;-72
2022/08/16 06:49:09;;;;;;;;;17.67;17.67;;;;;23.91;100.00;100468.28;5015115;28;62908;-72
2022/08/16 06:51:35;;;;;;;;;21.67;18.33;;;;;23.89;100.00;100447.75;5016265;28;45353;-71
2022/08/16 06:54:01;;;;;;;;;21.33;18.33;;;;;23.99;100.00;100467.91;5016588;28;45544;-72
2022/08/16 06:56:27;;;;;;;;;22.33;20.33;;;;;24.00;100.00;100459.72;5016078;28;45490;-73
2022/08/16 06:58:53;;;;;;;;;19.33;18.33;;;;;24.07;100.00;100464.81;5016209;28;45409;-72
2022/08/16 07:01:19;;;;;;;;;19.33;19.33;;;;;24.08;100.00;100464.75;5016504;28;45398;-72
2022/08/16 07:03:45;;;;;;;;;20.33;18.67;;;;;24.12;100.00;100471.72;5015175;28;45497;-71
2022/08/16 07:06:11;;;;;;;;;19.00;18.00;;;;;24.14;100.00;100477.06;5013702;28;46275;-71
2022/08/16 07:08:36;;;;;;;;;20.67;17.67;;;;;24.12;100.00;100468.16;5014845;28;45500;-72
2022/08/16 07:11:02;;;;;;;;;17.67;17.00;;;;;24.13;100.00;100470.78;5014956;28;51217;-71
2022/08/16 07:13:29;;;;;;;;;20.00;18.00;;;;;24.12;100.00;100470.84;5015637;28;45580;-71
2022/08/16 07:15:55;;;;;;;;;22.00;18.33;;;;;24.09;100.00;100466.50;5015612;28;45701;-72
2022/08/16 07:18:20;;;;;;;;;17.00;17.00;;;;;24.14;100.00;100477.06;5015074;28;45511;-72
2022/08/16 07:20:47;;;;;;;;;16.67;15.00;;;;;24.16;100.00;100481.41;5015444;28;45378;-72
2022/08/16 07:23:12;;;;;;;;;20.00;18.33;;;;;24.19;100.00;100478.56;5015029;28;45502;-72
2022/08/16 07:25:37;;;;;;;;;17.33;15.00;;;;;24.21;100.00;100478.47;5155399;22;72359;-71
2022/08/16 07:28:04;;;;;;;;;18.67;17.67;;;;;24.21;100.00;100473.09;5034561;28;56179;-71
2022/08/16 07:30:29;;;;;;;;;18.33;18.00;;;;;24.26;100.00;100477.28;5034714;28;45396;-71
2022/08/16 07:32:55;;;;;;;;;18.67;17.33;;;;;24.27;100.00;100487.13;5035380;28;45430;-70
2022/08/16 07:35:20;;;;;;;;;19.67;17.00;;;;;24.28;100.00;100483.47;5035665;28;46343;-70
2022/08/16 07:37:47;;;;;;;;;18.33;15.67;;;;;24.28;100.00;100485.28;5034822;28;45988;-71
2022/08/16 07:40:13;;;;;;;;;18.33;15.67;;;;;24.27;100.00;100484.44;5034846;28;46028;-71
2022/08/16 07:42:38;;;;;;;;;16.67;16.67;;;;;24.25;100.00;100475.53;5034928;28;56618;-71
2022/08/16 07:45:04;;;;;;;;;18.00;18.00;;;;;24.27;100.00;100481.72;5033856;28;66702;-69
2022/08/16 07:47:30;;;;;;;;;18.00;15.00;;;;;24.23;100.00;100477.44;5027794;28;45464;-71
2022/08/16 07:49:55;;;;;;;;;19.33;18.00;;;;;24.23;100.00;100480.13;5035203;28;59193;-71
2022/08/16 07:52:21;;;;;;;;;18.00;17.00;;;;;24.20;100.00;100479.44;5035286;28;45510;-73
2022/08/16 07:54:46;;;;;;;;;19.33;15.33;;;;;24.28;100.00;100483.47;5034002;28;46389;-70
2022/08/16 07:57:12;;;;;;;;;15.00;14.00;;;;;24.33;100.00;100487.75;5034476;28;60712;-71
2022/08/16 07:59:37;;;;;;;;;18.00;16.33;;;;;24.32;99.70;100481.50;5034646;28;45435;-70
2022/08/16 08:02:03;;;;;;;;;15.33;15.33;;;;;24.39;99.95;100496.44;5035166;28;45426;-71
2022/08/16 08:04:31;;;;;;;;;17.67;16.33;;;;;24.43;100.00;100489.94;5034125;28;47067;-70
2022/08/16 08:06:57;;;;;;;;;17.00;15.33;;;;;24.50;99.16;100501.28;5033499;28;45209;-70
2022/08/16 08:09:22;;;;;;;;;16.67;15.33;;;;;24.49;99.61;100484.22;5039619;28;45526;-70
2022/08/16 08:11:49;;;;;;;;;18.00;16.67;;;;;24.55;99.32;100486.63;5036966;28;45407;-71
2022/08/16 08:14:15;;;;;;;;;18.33;15.33;;;;;24.54;98.69;100486.69;5038796;28;46658;-71
2022/08/16 08:16:41;;;;;;;;;18.00;16.33;;;;;24.54;98.52;100492.09;5038796;28;45459;-71
2022/08/16 08:19:11;;;;;;;;;16.00;16.00;;;;;24.56;98.81;100488.38;5037964;28;45419;-71
2022/08/16 08:21:37;;;;;;;;;13.67;13.67;;;;;24.58;98.76;100482.00;5041344;28;45669;-71
2022/08/16 08:24:04;;;;;;;;;17.00;16.00;;;;;24.72;98.39;100495.66;5038482;28;47436;-70
2022/08/16 08:26:29;;;;;;;;;18.33;15.67;;;;;24.78;98.88;100495.31;5038350;28;45562;-73
2022/08/16 08:28:54;;;;;;;;;16.33;15.00;;;;;24.87;98.58;100497.50;5035502;28;66952;-72
2022/08/16 08:31:20;;;;;;;;;14.33;14.33;;;;;24.90;98.23;100488.38;5039287;28;45522;-70
2022/08/16 08:33:45;;;;;;;;;17.67;15.67;;;;;25.04;97.39;100497.50;5037943;28;45791;-71
2022/08/16 08:36:16;;;;;;;;;15.00;14.33;;;;;25.10;97.12;100496.31;5038347;28;45501;-70
2022/08/16 08:38:42;;;;;;;;;17.33;16.33;;;;;25.14;97.03;100497.00;5036506;28;45534;-71
2022/08/16 08:41:08;;;;;;;;;17.67;17.67;;;;;25.17;96.67;100491.44;5038559;28;45561;-71
2022/08/16 08:43:37;;;;;;;;;15.00;15.00;;;;;25.18;96.17;100491.34;5038459;28;45448;-71
2022/08/16 08:46:02;;;;;;;;;15.00;15.00;;;;;25.26;95.52;100501.75;5038678;28;45587;-72
2022/08/16 08:48:28;;;;;;;;;16.00;14.33;;;;;25.26;96.11;100496.34;5038498;28;45292;-71
2022/08/16 08:50:53;;;;;;;;;13.00;12.33;;;;;25.36;95.55;100497.59;5038502;28;45349;-71
2022/08/16 08:53:18;;;;;;;;;15.67;15.67;;;;;25.44;95.75;100505.25;5035536;28;68301;-71
2022/08/16 08:55:48;;;;;;;;;16.00;16.00;;;;;25.50;95.23;100503.06;5033163;28;67531;-71
2022/08/16 08:58:13;;;;;;;;;13.33;12.00;;;;;25.56;95.26;100494.63;5037152;28;46957;-71
2022/08/16 09:00:39;;;;;;;;;21.67;16.00;;;;;25.55;94.24;100484.75;5036296;28;45368;-72
2022/08/16 09:03:04;;;;;;;;;15.00;13.00;;;;;25.64;94.49;100496.91;5036593;28;65996;-70
2022/08/16 09:05:29;;;;;;;;;15.33;15.33;;;;;25.66;94.74;100496.81;5037067;28;45377;-73
2022/08/16 09:07:55;;;;;;;;;16.33;15.00;;;;;25.70;93.86;100501.09;5036291;28;65455;-72
2022/08/16 09:10:20;;;;;;;;;20.33;15.67;;;;;25.71;92.35;100505.53;5035407;28;45427;-70
2022/08/16 09:12:46;;;;;;;;;16.33;16.00;;;;;25.67;93.14;100507.53;5035934;28;45736;-72
2022/08/16 09:15:13;;;;;;;;;14.00;14.00;;;;;25.70;91.10;100501.09;5034991;28;45412;-70
2022/08/16 09:17:38;;;;;;;;;16.67;15.33;;;;;25.72;91.39;100513.53;5034683;28;45764;-71
2022/08/16 09:20:05;;;;;;;;;15.00;13.67;;;;;25.72;90.48;100518.97;5034070;28;56421;-71
2022/08/16 09:22:31;;;;;;;;;16.00;15.00;;;;;25.73;90.88;100512.63;5036445;28;46587;-70
2022/08/16 09:24:57;;;;;;;;;15.33;15.33;;;;;25.75;90.56;100509.84;5033552;28;45617;-71
2022/08/16 09:27:22;;;;;;;;;14.00;14.00;;;;;25.85;90.79;100517.34;5035075;28;46780;-71
2022/08/16 09:29:48;;;;;;;;;17.33;15.33;;;;;25.96;90.17;100514.03;5036594;28;45561;-71
2022/08/16 09:32:13;;;;;;;;;13.33;13.00;;;;;26.13;89.02;100526.56;5036660;28;65997;-71
2022/08/16 09:34:39;;;;;;;;;15.00;14.00;;;;;26.28;88.81;100524.78;5036736;28;65449;-71
2022/08/16 09:37:04;;;;;;;;;15.33;15.33;;;;;26.37;89.42;100524.25;5037745;28;45420;-71
2022/08/16 09:39:29;;;;;;;;;17.00;15.00;;;;;26.47;88.53;100525.44;5036297;28;58029;-70
2022/08/16 09:41:58;;;;;;;;;13.00;13.00;;;;;26.56;87.27;100529.47;5036864;28;65745;-71
2022/08/16 09:44:26;;;;;;;;;15.00;12.00;;;;;26.61;86.13;100511.09;5037092;28;45387;-70
2022/08/16 09:46:53;;;;;;;;;11.33;11.33;;;;;26.72;85.32;100527.56;5037375;28;45470;-71
2022/08/16 09:49:19;;;;;;;;;14.00;14.00;;;;;26.81;86.36;100527.00;5037250;28;45520;-70
2022/08/16 09:51:45;;;;;;;;;14.33;14.33;;;;;26.89;86.09;100526.53;5035393;28;45512;-71
2022/08/16 09:54:11;;;;;;;;;15.67;14.00;;;;;26.96;85.01;100530.63;5037037;28;45534;-72
2022/08/16 09:56:38;;;;;;;;;16.00;14.67;;;;;26.96;84.80;100527.91;5035884;28;45494;-70
2022/08/16 09:59:05;;;;;;;;;13.00;13.00;;;;;26.98;83.58;100531.38;5037165;28;45380;-71
2022/08/16 10:01:31;;;;;;;;;16.33;13.00;;;;;27.05;83.73;100527.31;5037228;28;45684;-70
2022/08/16 10:03:57;;;;;;;;;15.33;13.00;;;;;27.05;83.08;100523.72;5037374;28;45430;-71
2022/08/16 10:06:23;;;;;;;;;14.00;12.67;;;;;27.13;83.97;100525.03;5036046;28;45299;-72
2022/08/16 10:08:48;;;;;;;;;15.00;15.00;;;;;27.15;83.34;100516.81;5037458;28;45393;-72
2022/08/16 10:13:58;;;;;;;;;14.00;13.00;;;;;27.33;81.89;100529.22;5029136;28;45775;-72
2022/08/16 10:16:24;;;;;;;;;18.00;14.33;;;;;27.39;80.61;100522.53;5036224;28;62861;-71
2022/08/16 10:18:49;;;;;;;;;15.67;14.00;;;;;27.45;81.48;100526.69;5036155;28;64986;-72
2022/08/16 10:21:15;;;;;;;;;13.33;12.00;;;;;27.52;80.29;100525.31;5036990;28;46410;-71
2022/08/16 10:23:41;;;;;;;;;13.33;13.33;;;;;27.55;80.35;100533.25;5036365;28;45372;-72
2022/08/16 10:26:07;;;;;;;;;13.00;12.67;;;;;27.61;80.28;100533.72;5035898;28;45355;-72
2022/08/16 10:28:32;;;;;;;;;15.00;12.00;;;;;27.68;79.48;100526.91;5035756;28;60683;-72
2022/08/16 10:31:00;;;;;;;;;17.00;14.33;;;;;27.66;79.11;100523.44;5036532;28;47485;-72
2022/08/16 10:33:26;;;;;;;;;14.00;14.00;;;;;27.68;79.43;100524.22;5036040;28;45534;-72
2022/08/16 10:35:51;;;;;;;;;16.33;13.67;;;;;27.77;80.00;100530.91;5036782;28;45472;-72
2022/08/16 10:38:17;;;;;;;;;15.33;13.67;;;;;27.80;79.60;100521.69;5032939;28;45499;-72
2022/08/16 10:40:43;;;;;;;;;15.33;14.00;;;;;27.79;78.16;100518.13;5032789;28;59316;-72
2022/08/16 10:43:08;;;;;;;;;15.67;14.33;;;;;27.78;77.37;100516.38;5034158;28;45623;-72
2022/08/16 10:45:34;;;;;;;;;14.00;14.00;;;;;27.73;77.45;100518.53;5033785;28;45518;-71
2022/08/16 10:48:00;;;;;;;;;16.00;16.00;;;;;27.64;77.11;100517.22;5035567;28;45360;-72
2022/08/16 10:50:27;;;;;;;;;15.00;15.00;;;;;27.63;78.03;100530.91;5034676;28;46614;-71
2022/08/16 10:52:52;;;;;;;;;14.67;13.67;;;;;27.62;78.43;100521.03;5036152;28;45618;-73
2022/08/16 10:55:19;;;;;;;;;12.67;12.67;;;;;27.61;78.01;100516.59;5032318;28;45444;-73
2022/08/16 10:57:44;;;;;;;;;15.00;14.00;;;;;27.62;79.55;100527.31;5035149;28;45529;-70
2022/08/16 11:00:13;;;;;;;;;13.33;13.33;;;;;27.59;79.06;100527.53;5035467;28;46161;-70
2022/08/16 11:02:39;;;;;;;;;15.33;13.67;;;;;27.56;79.64;100526.84;5034567;28;45539;-72